Time;durP1;ratioP1;P1;durP2;ratioP2;P2;SDS_P1;SDS_P2;PMS_P1;PMS_P2;Temp;Humidity;BMP_temperature;BMP_pressure;BME280_temperature;BME280_humidity;BME280_pressure;Samples;Min_cycle;Max_cycle;Signal;HPM_P1;HPM_P2
2021/06/08 00:01:25;;;;;;;14.20;12.20;;;18.30;86.90;;;;;;5044709;28;20455;-47
2021/06/08 00:03:53;;;;;;;16.07;13.23;;;18.20;87.00;;;;;;5043789;28;20939;-46
2021/06/08 00:06:22;;;;;;;14.57;12.73;;;18.20;87.00;;;;;;5041707;28;20456;-46
2021/06/08 00:08:50;;;;;;;17.43;15.43;;;18.20;87.10;;;;;;5046664;28;20482;-46
2021/06/08 00:11:20;;;;;;;16.90;15.10;;;18.20;87.20;;;;;;5045209;28;21405;-47
2021/06/08 00:13:49;;;;;;;16.80;14.67;;;18.20;87.20;;;;;;5042886;28;20924;-47
2021/06/08 00:16:18;;;;;;;16.53;14.70;;;18.20;87.20;;;;;;5047177;28;20458;-47
2021/06/08 00:18:47;;;;;;;16.53;14.83;;;18.20;87.20;;;;;;5042299;28;20444;-47
2021/06/08 00:21:15;;;;;;;16.30;14.60;;;18.10;87.30;;;;;;5043590;28;20466;-46
2021/06/08 00:23:42;;;;;;;15.97;13.40;;;18.20;87.30;;;;;;5047320;28;20457;-46
2021/06/08 00:26:11;;;;;;;25.63;14.17;;;18.10;87.30;;;;;;5044191;28;20540;-46
2021/06/08 00:28:38;;;;;;;15.50;13.77;;;18.10;87.30;;;;;;5042114;28;20462;-47
2021/06/08 00:31:07;;;;;;;15.73;13.43;;;18.10;87.30;;;;;;5041093;28;20556;-46
2021/06/08 00:33:35;;;;;;;16.33;14.47;;;18.10;87.20;;;;;;5042996;28;20463;-46
2021/06/08 00:36:03;;;;;;;17.27;14.40;;;18.10;87.10;;;;;;5045775;28;20459;-47
2021/06/08 00:38:31;;;;;;;21.20;14.70;;;18.10;87.10;;;;;;5042015;28;20454;-47
2021/06/08 00:41:01;;;;;;;20.47;16.90;;;18.00;87.20;;;;;;5045428;28;20454;-46
2021/06/08 00:43:30;;;;;;;17.73;15.10;;;18.00;87.20;;;;;;5043415;28;20450;-47
2021/06/08 00:46:00;;;;;;;17.30;14.50;;;18.00;87.20;;;;;;5043229;28;20490;-47
2021/06/08 00:48:28;;;;;;;17.53;14.73;;;18.00;87.30;;;;;;5045560;28;20462;-47
2021/06/08 00:50:56;;;;;;;16.53;14.90;;;17.90;87.20;;;;;;5044480;28;20491;-46
2021/06/08 00:53:24;;;;;;;17.47;14.90;;;17.90;87.30;;;;;;5041930;28;20486;-47
2021/06/08 00:55:52;;;;;;;17.30;14.43;;;17.90;87.30;;;;;;5042036;28;20466;-47
2021/06/08 00:58:20;;;;;;;18.03;14.80;;;17.90;87.40;;;;;;5042516;28;20466;-46
2021/06/08 01:00:48;;;;;;;18.50;13.90;;;17.90;87.30;;;;;;5044294;28;20477;-47
2021/06/08 01:03:17;;;;;;;17.10;15.27;;;17.90;87.20;;;;;;5044328;28;20589;-47
2021/06/08 01:05:45;;;;;;;18.00;15.10;;;17.80;87.30;;;;;;5047328;28;20459;-46
2021/06/08 01:08:13;;;;;;;19.43;16.00;;;17.80;87.30;;;;;;5042405;28;20494;-47
2021/06/08 01:10:42;;;;;;;19.60;15.40;;;17.80;87.40;;;;;;5046276;28;20492;-46
2021/06/08 01:13:10;;;;;;;18.90;16.63;;;17.80;87.40;;;;;;5042204;28;20837;-47
2021/06/08 01:15:38;;;;;;;21.50;17.00;;;17.80;87.40;;;;;;5040110;28;20463;-47
2021/06/08 01:18:06;;;;;;;19.17;16.10;;;17.80;87.40;;;;;;5046713;28;20903;-47
2021/06/08 01:20:34;;;;;;;18.23;15.80;;;17.80;87.30;;;;;;5039108;28;20466;-47
2021/06/08 01:23:03;;;;;;;18.60;15.50;;;17.80;87.30;;;;;;5045758;28;20466;-47
2021/06/08 01:25:31;;;;;;;20.90;16.23;;;17.80;87.30;;;;;;5043667;28;20463;-47
2021/06/08 01:27:59;;;;;;;17.33;15.50;;;17.80;87.30;;;;;;5040186;28;20498;-47
2021/06/08 01:30:29;;;;;;;18.80;14.73;;;17.80;87.30;;;;;;5042962;28;20456;-47
2021/06/08 01:32:58;;;;;;;18.07;16.13;;;17.80;87.40;;;;;;5043080;28;20456;-47
2021/06/08 01:35:28;;;;;;;23.13;15.63;;;17.80;87.40;;;;;;5045313;28;20455;-47
2021/06/08 01:37:56;;;;;;;15.80;14.20;;;17.80;87.40;;;;;;5046110;28;20464;-46
2021/06/08 01:40:25;;;;;;;19.40;14.67;;;17.70;87.40;;;;;;5040157;28;20458;-46
2021/06/08 02:59:16;;;;;;;19.40;15.23;;;17.50;88.30;;;;;;5040501;28;20426;-46
2021/06/08 03:01:51;;;;;;;19.20;16.10;;;17.50;88.30;;;;;;5041176;28;20462;-45
2021/06/08 03:04:24;;;;;;;19.70;15.50;;;17.60;88.30;;;;;;5042524;28;20463;-45
2021/06/08 03:06:57;;;;;;;23.00;15.70;;;17.50;88.40;;;;;;5039171;28;20497;-46
2021/06/08 03:09:40;;;;;;;21.93;15.70;;;17.50;88.30;;;;;;5042921;28;20489;-46
2021/06/08 03:12:13;;;;;;;16.80;14.40;;;17.50;88.30;;;;;;5044486;28;20497;-46
2021/06/08 03:14:46;;;;;;;17.53;15.73;;;17.50;88.30;;;;;;5046901;28;21033;-46
2021/06/08 03:17:16;;;;;;;17.40;15.60;;;17.50;88.40;;;;;;5043528;28;20463;-45
2021/06/08 03:19:47;;;;;;;17.27;14.43;;;17.60;88.40;;;;;;5049931;28;21156;-46
2021/06/08 03:22:18;;;;;;;17.93;15.90;;;17.60;88.30;;;;;;5046549;28;20466;-45
2021/06/08 03:24:51;;;;;;;17.17;15.43;;;17.60;88.20;;;;;;5047120;28;20454;-46
2021/06/08 03:27:21;;;;;;;19.67;16.47;;;17.60;88.00;;;;;;5044539;28;20988;-46
2021/06/08 03:29:51;;;;;;;19.03;15.57;;;17.60;87.80;;;;;;5043127;28;20451;-45
2021/06/08 03:32:20;;;;;;;19.10;15.17;;;17.70;87.30;;;;;;5044355;28;20487;-46
2021/06/08 03:34:48;;;;;;;19.90;14.87;;;17.70;87.30;;;;;;5046152;28;20471;-45
2021/06/08 03:37:19;;;;;;;19.20;16.60;;;17.70;87.20;;;;;;5045626;28;20458;-45
2021/06/08 03:39:49;;;;;;;17.77;15.07;;;17.70;87.00;;;;;;5045040;28;20471;-45
2021/06/08 03:42:17;;;;;;;17.67;15.00;;;17.80;86.40;;;;;;5044128;28;20466;-45
2021/06/08 03:44:46;;;;;;;18.00;15.03;;;17.80;85.90;;;;;;5044601;28;20970;-45
2021/06/08 03:47:18;;;;;;;18.50;15.57;;;17.90;84.50;;;;;;5043818;28;20915;-45
2021/06/08 03:49:47;;;;;;;17.67;15.37;;;17.80;84.80;;;;;;5044559;28;20471;-46
2021/06/08 03:52:15;;;;;;;18.20;14.13;;;17.80;85.00;;;;;;5039161;28;20848;-46
2021/06/08 03:54:43;;;;;;;18.70;15.57;;;17.80;85.20;;;;;;5046369;28;20463;-46
2021/06/08 03:57:12;;;;;;;15.63;13.83;;;17.90;85.40;;;;;;5045760;28;20466;-45
2021/06/08 03:59:40;;;;;;;16.50;14.70;;;17.90;85.20;;;;;;5045618;28;20457;-45
2021/06/08 04:02:08;;;;;;;16.17;14.50;;;17.90;84.80;;;;;;5047258;28;20521;-46
2021/06/08 04:04:37;;;;;;;17.73;15.63;;;18.00;84.20;;;;;;5044123;28;20466;-46
2021/06/08 04:07:04;;;;;;;18.20;15.03;;;18.00;84.00;;;;;;5049801;28;20488;-46
2021/06/08 04:09:32;;;;;;;22.63;15.50;;;17.90;84.20;;;;;;5042682;28;20497;-46
2021/06/08 04:12:00;;;;;;;17.10;13.63;;;17.90;84.40;;;;;;5046713;28;20493;-46
2021/06/08 04:14:30;;;;;;;15.20;13.60;;;17.90;84.60;;;;;;5043453;28;20481;-46
2021/06/08 04:16:58;;;;;;;14.67;13.03;;;17.90;84.80;;;;;;5042322;28;20482;-45
2021/06/08 04:19:26;;;;;;;17.00;14.70;;;17.90;84.90;;;;;;5042954;28;20454;-45
2021/06/08 04:21:54;;;;;;;15.57;13.73;;;18.00;84.80;;;;;;5044708;28;20463;-46
2021/06/08 04:24:22;;;;;;;17.60;15.07;;;18.00;84.30;;;;;;5041897;28;20467;-46
2021/06/08 04:26:50;;;;;;;16.03;14.33;;;18.10;83.90;;;;;;5044451;28;20450;-45
2021/06/08 04:29:18;;;;;;;15.73;13.77;;;18.10;83.60;;;;;;5043136;28;20456;-45
2021/06/08 04:31:47;;;;;;;15.60;12.80;;;18.10;83.50;;;;;;5045975;28;20494;-45
2021/06/08 04:34:19;;;;;;;16.93;14.63;;;18.10;82.90;;;;;;5045503;28;20976;-45
2021/06/08 04:36:48;;;;;;;15.77;13.50;;;18.10;83.00;;;;;;5040814;28;20451;-46
2021/06/08 04:39:17;;;;;;;16.17;14.40;;;18.10;83.10;;;;;;5046425;28;20468;-46
2021/06/08 04:41:46;;;;;;;19.23;14.50;;;18.10;83.00;;;;;;5045845;28;20826;-46
2021/06/08 04:44:21;;;;;;;15.30;13.20;;;18.20;82.90;;;;;;5043558;28;20463;-46
2021/06/08 04:46:49;;;;;;;16.97;14.63;;;18.20;82.90;;;;;;5044981;28;20465;-46
2021/06/08 04:49:17;;;;;;;14.87;13.30;;;18.20;82.00;;;;;;5042395;28;20478;-45
2021/06/08 04:51:45;;;;;;;17.80;14.03;;;18.20;82.40;;;;;;5044487;28;20959;-45
2021/06/08 04:54:13;;;;;;;17.30;14.93;;;18.20;82.70;;;;;;5045301;28;20459;-45
2021/06/08 04:56:41;;;;;;;16.87;14.67;;;18.20;82.80;;;;;;5045008;28;20456;-45
2021/06/08 04:59:13;;;;;;;17.83;15.13;;;18.30;82.20;;;;;;5040163;28;20475;-45
2021/06/08 05:01:43;;;;;;;16.63;14.40;;;18.20;82.40;;;;;;5042523;28;20450;-46
2021/06/08 05:04:16;;;;;;;18.60;13.60;;;18.30;82.30;;;;;;5044128;28;20458;-46
2021/06/08 05:06:51;;;;;;;16.90;14.03;;;18.30;82.50;;;;;;5042870;28;20459;-45
2021/06/08 05:09:27;;;;;;;17.97;14.57;;;18.30;82.50;;;;;;5042147;28;20485;-45
2021/06/08 05:11:57;;;;;;;14.50;12.90;;;18.30;82.60;;;;;;5038904;28;20494;-45
2021/06/08 05:14:28;;;;;;;15.40;12.53;;;18.30;82.60;;;;;;5038735;28;20481;-45
2021/06/08 05:16:59;;;;;;;16.10;13.80;;;18.30;82.80;;;;;;5040859;28;20458;-46
2021/06/08 05:19:27;;;;;;;17.63;14.93;;;18.30;83.10;;;;;;5041198;28;20452;-45
2021/06/08 05:21:56;;;;;;;17.70;14.50;;;18.30;83.50;;;;;;5039739;28;20529;-45
2021/06/08 05:24:25;;;;;;;18.50;14.63;;;18.30;83.70;;;;;;5045045;28;20463;-46
2021/06/08 05:26:53;;;;;;;16.53;14.63;;;18.30;83.90;;;;;;5039858;28;20535;-45
2021/06/08 05:29:23;;;;;;;23.83;14.87;;;18.30;84.00;;;;;;5041189;28;20468;-46
2021/06/08 05:31:56;;;;;;;19.00;15.00;;;18.30;84.20;;;;;;5046650;28;20491;-46
2021/06/08 05:34:26;;;;;;;16.10;14.40;;;18.30;84.30;;;;;;5047135;28;20819;-45
2021/06/08 05:36:54;;;;;;;18.67;16.37;;;18.30;84.40;;;;;;5046479;28;20458;-46
2021/06/08 05:39:24;;;;;;;19.50;16.27;;;18.30;84.40;;;;;;5042853;28;20449;-45
2021/06/08 05:41:52;;;;;;;18.60;15.50;;;18.40;84.50;;;;;;5041255;28;20911;-46
2021/06/08 05:44:20;;;;;;;18.47;16.40;;;18.40;84.50;;;;;;5044308;28;20470;-46
2021/06/08 05:46:49;;;;;;;16.37;14.67;;;18.40;84.40;;;;;;5039650;28;20936;-46
2021/06/08 05:49:17;;;;;;;17.00;14.70;;;18.40;84.30;;;;;;5040632;28;20960;-46
2021/06/08 05:51:48;;;;;;;18.67;16.53;;;18.50;84.10;;;;;;5042776;28;20501;-45
2021/06/08 05:54:16;;;;;;;15.23;13.70;;;18.50;83.90;;;;;;5044083;28;20795;-45
2021/06/08 05:56:45;;;;;;;16.63;14.70;;;18.50;83.90;;;;;;5045915;28;20461;-46
2021/06/08 05:59:16;;;;;;;22.53;14.77;;;18.60;83.80;;;;;;5040158;28;20459;-46
2021/06/08 06:01:44;;;;;;;15.40;13.13;;;18.60;83.80;;;;;;5041608;28;20818;-47
2021/06/08 06:04:16;;;;;;;17.17;13.40;;;18.60;83.70;;;;;;5041158;28;20467;-45
2021/06/08 06:06:48;;;;;;;15.70;13.97;;;18.70;83.60;;;;;;5059227;28;20471;-46
2021/06/08 06:09:19;;;;;;;17.10;13.37;;;18.70;82.30;;;;;;5042737;28;20501;-45
2021/06/08 06:11:51;;;;;;;15.57;13.97;;;18.70;82.40;;;;;;5040856;28;20490;-46
2021/06/08 06:14:23;;;;;;;17.80;13.33;;;18.80;82.00;;;;;;5040779;28;20467;-46
2021/06/08 06:16:54;;;;;;;14.30;12.80;;;18.90;81.20;;;;;;5041655;28;20469;-45
2021/06/08 06:19:26;;;;;;;16.17;13.97;;;18.90;81.40;;;;;;5044909;28;20450;-45
2021/06/08 06:21:57;;;;;;;15.20;13.70;;;18.90;81.30;;;;;;5040642;28;20462;-46
2021/06/08 06:24:28;;;;;;;18.70;15.10;;;19.00;81.30;;;;;;5043006;28;20460;-46
2021/06/08 06:26:56;;;;;;;19.33;15.00;;;19.00;81.30;;;;;;5039739;28;20464;-46
2021/06/08 06:29:23;;;;;;;17.40;14.47;;;19.00;81.80;;;;;;5042268;28;20467;-45
2021/06/08 06:31:56;;;;;;;16.37;14.63;;;19.10;81.90;;;;;;5041530;28;20490;-45
2021/06/08 06:34:25;;;;;;;17.43;14.60;;;19.10;82.10;;;;;;5042542;28;20975;-46
2021/06/08 06:36:56;;;;;;;17.37;13.83;;;19.10;82.20;;;;;;5037974;28;20444;-45
2021/06/08 06:39:27;;;;;;;15.90;14.27;;;19.10;82.30;;;;;;5040459;28;20762;-46
2021/06/08 06:42:01;;;;;;;22.80;14.80;;;19.20;82.40;;;;;;5039495;28;20466;-45
2021/06/08 06:44:32;;;;;;;18.57;14.77;;;19.20;82.40;;;;;;5042670;28;20481;-46
2021/06/08 06:47:00;;;;;;;17.20;14.80;;;19.20;82.30;;;;;;5040764;28;20887;-46
2021/06/08 06:49:28;;;;;;;15.60;13.30;;;19.30;82.20;;;;;;5042851;28;20993;-46
2021/06/08 06:51:57;;;;;;;15.53;13.40;;;19.30;82.10;;;;;;5045043;28;20482;-46
2021/06/08 06:54:25;;;;;;;16.00;13.90;;;19.30;81.80;;;;;;5045216;28;20818;-46
2021/06/08 06:56:56;;;;;;;16.17;14.37;;;19.30;81.60;;;;;;5041621;28;20481;-46
2021/06/08 06:59:24;;;;;;;13.83;12.30;;;19.30;81.20;;;;;;5037366;28;20457;-46
2021/06/08 07:01:52;;;;;;;15.47;13.87;;;19.30;80.90;;;;;;5047672;28;20997;-46
2021/06/08 07:04:24;;;;;;;14.17;12.80;;;19.30;80.80;;;;;;5047252;28;20458;-46
2021/06/08 07:06:56;;;;;;;15.10;13.50;;;19.30;80.90;;;;;;5046442;28;20511;-45
2021/06/08 07:09:27;;;;;;;15.13;13.07;;;19.30;80.90;;;;;;5047559;28;20490;-46
2021/06/08 07:11:58;;;;;;;15.50;13.50;;;19.40;80.30;;;;;;5045156;28;20497;-46
2021/06/08 07:14:27;;;;;;;18.37;13.50;;;19.40;80.10;;;;;;5045333;28;20834;-46
2021/06/08 07:17:17;;;;;;;16.63;14.10;;;19.40;79.90;;;;;;5022026;28;20463;-46
2021/06/08 07:19:45;;;;;;;16.60;13.80;;;19.40;79.80;;;;;;5044960;28;20524;-45
2021/06/08 07:22:15;;;;;;;15.63;14.00;;;19.40;80.20;;;;;;5046582;28;20472;-46
2021/06/08 07:24:44;;;;;;;18.23;14.10;;;19.40;80.40;;;;;;5045427;28;20458;-45
2021/06/08 07:27:13;;;;;;;18.27;14.10;;;19.40;80.70;;;;;;5045711;28;20467;-45
2021/06/08 07:29:43;;;;;;;16.97;15.27;;;19.40;80.80;;;;;;5046514;28;20455;-45
2021/06/08 07:32:25;;;;;;;16.53;13.67;;;19.30;80.80;;;;;;5048247;28;20509;-46
2021/06/08 07:35:20;;;;;;;16.90;14.43;;;19.30;80.70;;;;;;5044037;28;20454;-46
2021/06/08 07:37:50;;;;;;;14.83;13.00;;;19.30;80.80;;;;;;5045649;28;20465;-46
2021/06/08 07:40:25;;;;;;;18.77;14.97;;;19.30;80.90;;;;;;5045628;28;20463;-45
2021/06/08 07:42:56;;;;;;;14.57;13.13;;;19.30;80.90;;;;;;5047281;28;20450;-46
2021/06/08 07:45:32;;;;;;;17.13;13.77;;;19.40;80.60;;;;;;5043436;28;20486;-46
2021/06/08 07:48:04;;;;;;;16.10;14.40;;;19.40;80.50;;;;;;5041211;28;20462;-46
2021/06/08 07:50:35;;;;;;;14.70;13.20;;;19.40;80.40;;;;;;5045019;28;20447;-46
2021/06/08 07:53:05;;;;;;;16.33;14.60;;;19.50;80.10;;;;;;5044494;28;20482;-46
2021/06/08 07:55:35;;;;;;;15.37;13.70;;;19.50;79.50;;;;;;5045057;28;20462;-46
2021/06/08 07:58:03;;;;;;;17.93;15.07;;;19.60;79.50;;;;;;5043868;28;20451;-47
2021/06/08 08:00:32;;;;;;;19.83;14.80;;;19.70;80.00;;;;;;5040422;28;20510;-46
2021/06/08 08:03:25;;;;;;;16.87;15.17;;;19.60;80.00;;;;;;5034594;28;20495;-46
2021/06/08 08:05:50;;;;;;;17.10;15.30;;;19.60;79.70;;;;;;5041902;28;20455;-46
2021/06/08 08:08:19;;;;;;;16.87;14.73;;;19.70;79.60;;;;;;5046877;28;20496;-46
2021/06/08 08:10:49;;;;;;;17.30;14.83;;;19.70;79.10;;;;;;5039435;28;20838;-46
2021/06/08 08:13:23;;;;;;;16.00;13.50;;;19.70;79.10;;;;;;5041807;28;20485;-46
2021/06/08 08:16:06;;;;;;;17.23;13.60;;;19.80;79.00;;;;;;5046887;28;20451;-46
2021/06/08 08:18:35;;;;;;;15.37;13.90;;;19.90;79.00;;;;;;5041246;28;20466;-46
2021/06/08 08:21:07;;;;;;;17.30;13.50;;;19.90;79.10;;;;;;5044856;28;20457;-45
2021/06/08 08:23:36;;;;;;;17.87;13.73;;;19.90;78.90;;;;;;5041934;28;20459;-46
2021/06/08 08:26:08;;;;;;;14.90;12.43;;;19.90;78.80;;;;;;5039629;28;20456;-46
2021/06/08 08:28:40;;;;;;;15.10;13.70;;;20.00;78.80;;;;;;5042368;28;20989;-45
2021/06/08 08:31:13;;;;;;;17.10;13.50;;;20.10;78.50;;;;;;5045873;28;20474;-45
2021/06/08 08:33:43;;;;;;;16.20;14.50;;;20.20;77.80;;;;;;5043803;28;20475;-46
2021/06/08 08:36:12;;;;;;;19.13;14.23;;;20.20;77.70;;;;;;5042924;28;20462;-46
2021/06/08 08:38:40;;;;;;;15.20;13.57;;;20.30;77.60;;;;;;5043987;28;20446;-46
2021/06/08 08:41:09;;;;;;;16.10;13.27;;;20.40;77.40;;;;;;5042167;28;20454;-46
2021/06/08 08:43:43;;;;;;;16.13;14.33;;;20.60;77.20;;;;;;5043098;28;20467;-46
2021/06/08 08:46:12;;;;;;;19.30;15.87;;;20.60;77.30;;;;;;5042619;28;20478;-46
2021/06/08 08:48:42;;;;;;;19.53;14.00;;;20.70;77.10;;;;;;5045425;28;20467;-46
2021/06/08 08:51:12;;;;;;;16.63;13.97;;;20.70;76.90;;;;;;5044798;28;20465;-45
2021/06/08 08:53:43;;;;;;;17.10;15.27;;;20.70;76.80;;;;;;5043706;28;20529;-46
2021/06/08 08:56:30;;;;;;;15.80;13.70;;;20.70;77.00;;;;;;5040855;28;20457;-46
2021/06/08 08:59:15;;;;;;;17.00;14.83;;;20.80;76.60;;;;;;5047660;28;20528;-46
2021/06/08 09:01:47;;;;;;;20.40;14.30;;;20.70;76.70;;;;;;5045509;28;20463;-46
2021/06/08 09:04:18;;;;;;;20.70;14.43;;;20.70;76.50;;;;;;5044287;28;20792;-46
2021/06/08 09:06:46;;;;;;;17.47;15.47;;;20.70;76.30;;;;;;5042672;28;20931;-46
2021/06/08 09:09:14;;;;;;;19.27;15.50;;;20.70;76.50;;;;;;5045046;28;20493;-46
2021/06/08 09:11:42;;;;;;;19.13;14.97;;;20.70;76.90;;;;;;5046467;28;20966;-46
2021/06/08 09:14:13;;;;;;;17.60;15.43;;;20.80;76.20;;;;;;5045398;28;20983;-46
2021/06/08 09:16:41;;;;;;;18.53;13.40;;;20.80;76.50;;;;;;5042928;28;20478;-46
2021/06/08 09:19:10;;;;;;;18.70;14.93;;;20.80;76.50;;;;;;5042859;28;20459;-46
2021/06/08 09:21:43;;;;;;;19.30;15.53;;;20.90;77.00;;;;;;5043856;28;20543;-46
2021/06/08 09:24:26;;;;;;;17.70;15.03;;;20.80;76.80;;;;;;5042693;28;21176;-46
2021/06/08 09:27:03;;;;;;;17.87;15.70;;;20.90;76.50;;;;;;5042917;28;20459;-46
2021/06/08 09:29:35;;;;;;;18.23;13.77;;;20.90;76.70;;;;;;5044894;28;20462;-46
2021/06/08 09:32:36;;;;;;;19.17;15.30;;;20.90;76.10;;;;;;5043701;28;20463;-46
2021/06/08 09:35:04;;;;;;;16.83;14.70;;;20.90;76.60;;;;;;5011562;28;20451;-46
2021/06/08 09:37:41;;;;;;;15.17;13.47;;;20.80;76.50;;;;;;5039800;28;20466;-46
2021/06/08 09:40:24;;;;;;;15.70;14.10;;;20.90;76.60;;;;;;5047155;28;20832;-46
2021/06/08 09:43:06;;;;;;;17.10;14.10;;;20.90;76.60;;;;;;5039237;28;20454;-46
2021/06/08 09:45:46;;;;;;;15.03;13.50;;;20.90;76.50;;;;;;5041876;28;20474;-46
2021/06/08 09:48:15;;;;;;;20.93;16.03;;;21.00;76.40;;;;;;5043763;28;20461;-46
2021/06/08 09:50:45;;;;;;;16.57;13.60;;;21.00;76.40;;;;;;5041929;28;20930;-45
2021/06/08 09:53:26;;;;;;;14.70;13.20;;;21.10;76.20;;;;;;5043544;28;20491;-47
2021/06/08 09:56:06;;;;;;;15.10;12.90;;;21.10;76.20;;;;;;5042161;28;20549;-46
2021/06/08 09:58:40;;;;;;;17.60;14.20;;;21.20;75.90;;;;;;5042827;28;20450;-46
2021/06/08 10:01:19;;;;;;;16.50;13.20;;;21.30;75.30;;;;;;5043653;28;20478;-46
2021/06/08 10:03:52;;;;;;;19.60;14.00;;;21.40;74.10;;;;;;5043190;28;20517;-46
2021/06/08 10:06:20;;;;;;;18.13;14.90;;;21.40;74.10;;;;;;5046707;28;20520;-46
2021/06/08 10:08:59;;;;;;;16.80;13.93;;;21.50;74.50;;;;;;5043403;28;20486;-46
2021/06/08 10:11:31;;;;;;;15.47;13.53;;;21.60;73.80;;;;;;5041776;28;20463;-46
2021/06/08 10:14:10;;;;;;;16.53;14.67;;;21.70;74.00;;;;;;5043897;28;20486;-46
2021/06/08 10:16:38;;;;;;;14.00;12.50;;;21.80;72.60;;;;;;5045458;28;20455;-46
2021/06/08 10:19:10;;;;;;;15.07;13.47;;;21.90;72.50;;;;;;5044128;28;20451;-46
2021/06/08 10:21:47;;;;;;;15.80;14.20;;;21.90;72.10;;;;;;5043539;28;21030;-46
2021/06/08 10:24:21;;;;;;;15.60;12.90;;;22.00;71.50;;;;;;5047548;28;20457;-46
2021/06/08 10:26:55;;;;;;;17.27;15.47;;;22.00;72.10;;;;;;5046536;28;20477;-46
2021/06/08 10:29:30;;;;;;;17.77;13.57;;;22.10;72.40;;;;;;5048212;28;21148;-46
2021/06/08 10:31:58;;;;;;;17.67;15.00;;;22.20;71.70;;;;;;5049198;28;20832;-46
2021/06/08 10:34:42;;;;;;;16.97;13.77;;;22.30;71.80;;;;;;5045890;28;20450;-47
2021/06/08 10:37:11;;;;;;;16.10;14.27;;;22.40;70.50;;;;;;5044514;28;20962;-46
2021/06/08 10:39:39;;;;;;;16.37;14.00;;;22.50;70.70;;;;;;5046841;28;21164;-46
2021/06/08 10:42:08;;;;;;;16.10;13.10;;;22.50;70.90;;;;;;5049856;28;20458;-46
2021/06/08 10:44:37;;;;;;;18.07;13.57;;;22.50;71.00;;;;;;5043485;28;20443;-46
2021/06/08 10:47:20;;;;;;;14.83;13.27;;;22.60;72.00;;;;;;5049104;28;20462;-46
2021/06/08 10:49:49;;;;;;;14.80;13.30;;;22.70;71.70;;;;;;5049968;28;20466;-46
2021/06/08 10:52:17;;;;;;;16.00;14.30;;;22.80;71.00;;;;;;5049793;28;20450;-47
2021/06/08 10:54:51;;;;;;;16.30;13.57;;;22.90;70.60;;;;;;5044801;28;20535;-46
2021/06/08 10:57:19;;;;;;;15.00;12.70;;;22.90;69.70;;;;;;5046985;28;20462;-46
2021/06/08 10:59:52;;;;;;;13.37;12.00;;;22.90;69.80;;;;;;5042836;28;20451;-45
2021/06/08 11:02:44;;;;;;;13.13;11.83;;;23.00;69.30;;;;;;5045976;28;20859;-45
2021/06/08 11:05:16;;;;;;;12.80;11.50;;;23.00;68.60;;;;;;5043590;28;20482;-45
2021/06/08 11:07:46;;;;;;;14.87;13.10;;;23.10;69.20;;;;;;5051438;28;20453;-45
2021/06/08 11:10:30;;;;;;;15.30;13.03;;;23.10;69.10;;;;;;5045791;28;20483;-45
2021/06/08 11:13:10;;;;;;;13.10;11.67;;;23.10;68.90;;;;;;5043904;28;21040;-45
2021/06/08 11:15:46;;;;;;;14.10;12.63;;;23.10;68.80;;;;;;5046972;28;20465;-45
2021/06/08 11:18:25;;;;;;;13.40;12.10;;;23.10;68.90;;;;;;5046750;28;20911;-45
2021/06/08 11:21:02;;;;;;;14.90;12.00;;;23.20;68.50;;;;;;5043273;28;20446;-45
2021/06/08 11:23:44;;;;;;;12.00;10.80;;;23.30;68.60;;;;;;5045452;28;20461;-45
2021/06/08 11:26:17;;;;;;;12.83;11.30;;;23.40;68.90;;;;;;5044475;28;20458;-45
2021/06/08 11:28:50;;;;;;;13.33;12.00;;;23.40;68.20;;;;;;5045325;28;20461;-45
2021/06/08 11:31:21;;;;;;;14.30;12.87;;;23.50;67.70;;;;;;5045643;28;20959;-45
2021/06/08 11:33:50;;;;;;;14.13;12.73;;;23.50;67.90;;;;;;5045309;28;20871;-45
2021/06/08 11:36:22;;;;;;;13.43;12.03;;;23.40;67.30;;;;;;5044261;28;20443;-45
2021/06/08 11:38:56;;;;;;;13.50;11.07;;;23.50;67.70;;;;;;5050234;28;20451;-45
2021/06/08 11:41:24;;;;;;;13.90;12.50;;;23.50;68.00;;;;;;5041230;28;20795;-45
2021/06/08 11:44:21;;;;;;;13.07;11.87;;;23.50;68.10;;;;;;5044926;28;21014;-45
2021/06/08 11:46:55;;;;;;;14.30;12.80;;;23.60;68.60;;;;;;5044118;28;20935;-45
2021/06/08 11:49:24;;;;;;;14.00;12.60;;;23.60;69.20;;;;;;5046512;28;20481;-45
2021/06/08 11:52:06;;;;;;;12.90;11.60;;;23.60;68.90;;;;;;5044023;28;20937;-45
2021/06/08 11:54:33;;;;;;;13.97;12.57;;;23.70;68.50;;;;;;5045002;28;20490;-45
2021/06/08 11:57:06;;;;;;;14.37;13.00;;;23.70;68.40;;;;;;5045275;28;20449;-45
2021/06/08 11:59:46;;;;;;;15.27;13.67;;;23.80;68.10;;;;;;5042218;28;20454;-47
2021/06/08 12:02:34;;;;;;;16.33;13.70;;;23.80;67.80;;;;;;5040005;28;20454;-45
2021/06/08 12:05:10;;;;;;;13.87;12.17;;;23.90;68.30;;;;;;5040367;28;20450;-45
2021/06/08 12:07:44;;;;;;;15.00;13.60;;;23.90;67.80;;;;;;5041158;28;20454;-46
2021/06/08 12:10:15;;;;;;;15.63;14.03;;;23.90;69.10;;;;;;5042345;28;20454;-46
2021/06/08 12:12:50;;;;;;;15.77;13.23;;;23.90;67.70;;;;;;5043693;28;21367;-46
2021/06/08 12:15:39;;;;;;;17.70;13.13;;;23.90;67.60;;;;;;5039167;28;20544;-46
2021/06/08 12:18:12;;;;;;;15.50;14.00;;;23.80;68.20;;;;;;5044190;28;20458;-46
2021/06/08 12:20:42;;;;;;;15.27;12.80;;;23.90;67.50;;;;;;5042192;28;20454;-46
2021/06/08 12:23:24;;;;;;;15.00;13.60;;;24.00;68.80;;;;;;5040079;28;20470;-46
2021/06/08 12:25:51;;;;;;;14.63;13.13;;;24.10;66.90;;;;;;5043535;28;20454;-47
2021/06/08 12:28:20;;;;;;;14.43;13.07;;;24.20;66.80;;;;;;5041132;28;20451;-46
2021/06/08 12:30:48;;;;;;;14.73;13.27;;;24.20;66.20;;;;;;5041193;28;20951;-46
2021/06/08 12:33:16;;;;;;;14.50;13.10;;;24.30;67.30;;;;;;5041395;28;20536;-47
2021/06/08 12:35:46;;;;;;;15.73;14.13;;;24.30;67.20;;;;;;5043467;28;20823;-46
2021/06/08 12:38:21;;;;;;;14.90;13.40;;;24.30;66.90;;;;;;5042022;28;21284;-47
2021/06/08 12:41:08;;;;;;;13.83;11.80;;;24.30;68.20;;;;;;5041958;28;20878;-47
2021/06/08 12:43:55;;;;;;;13.83;12.57;;;24.30;68.50;;;;;;5040052;28;20461;-47
2021/06/08 12:46:40;;;;;;;14.60;13.10;;;24.30;67.00;;;;;;5039887;28;20458;-47
2021/06/08 12:49:16;;;;;;;12.67;11.33;;;24.30;66.70;;;;;;5041324;28;20507;-47
2021/06/08 12:51:52;;;;;;;12.90;11.73;;;24.30;66.50;;;;;;5041293;28;20512;-46
2021/06/08 12:54:35;;;;;;;13.57;11.93;;;24.40;65.80;;;;;;5042819;28;20801;-46
2021/06/08 12:57:05;;;;;;;13.57;12.17;;;24.40;65.40;;;;;;5043696;28;20958;-47
2021/06/08 12:59:44;;;;;;;13.40;12.10;;;24.40;65.70;;;;;;5039367;28;20450;-47
2021/06/08 13:02:15;;;;;;;14.00;12.60;;;24.50;66.20;;;;;;5044370;28;20462;-47
2021/06/08 13:04:45;;;;;;;15.30;12.93;;;24.50;65.40;;;;;;5042335;28;20461;-46
2021/06/08 13:07:21;;;;;;;13.10;11.80;;;24.50;65.00;;;;;;5042382;28;20464;-46
2021/06/08 13:10:01;;;;;;;13.97;12.63;;;24.50;65.20;;;;;;5042051;28;20539;-47
2021/06/08 13:12:39;;;;;;;15.83;14.20;;;24.60;65.90;;;;;;5039361;28;20993;-45
2021/06/08 13:15:09;;;;;;;15.13;12.47;;;24.60;65.90;;;;;;5040391;28;20494;-45
2021/06/08 13:17:38;;;;;;;13.43;12.23;;;24.60;66.30;;;;;;5042785;28;20464;-45
2021/06/08 13:20:31;;;;;;;14.37;12.97;;;24.70;65.90;;;;;;5042615;28;20461;-47
2021/06/08 13:22:59;;;;;;;13.57;12.20;;;24.60;67.40;;;;;;5041218;28;20470;-47
2021/06/08 13:25:30;;;;;;;15.03;12.20;;;24.50;65.90;;;;;;5044537;28;20563;-47
2021/06/08 13:27:58;;;;;;;12.97;11.77;;;24.50;66.00;;;;;;5039637;28;20500;-46
2021/06/08 13:30:31;;;;;;;12.30;11.00;;;24.50;66.80;;;;;;5040728;28;20461;-46
2021/06/08 13:33:05;;;;;;;12.00;11.00;;;24.40;65.90;;;;;;5044610;28;21035;-47
2021/06/08 13:35:35;;;;;;;10.83;9.80;;;24.50;65.10;;;;;;5043911;28;20512;-46
2021/06/08 13:38:08;;;;;;;12.93;11.53;;;24.50;64.30;;;;;;5041527;28;20987;-47
2021/06/08 13:40:40;;;;;;;11.97;10.87;;;24.50;65.00;;;;;;5041855;28;20464;-46
2021/06/08 13:43:16;;;;;;;12.43;11.23;;;24.40;64.90;;;;;;5043658;28;20461;-47
2021/06/08 13:45:46;;;;;;;13.17;11.87;;;24.40;64.90;;;;;;5042569;28;20482;-47
2021/06/08 13:48:33;;;;;;;12.33;11.13;;;24.40;64.30;;;;;;5042851;28;20438;-46
2021/06/08 13:51:10;;;;;;;11.17;10.17;;;24.50;64.20;;;;;;5039663;28;20462;-47
2021/06/08 13:53:40;;;;;;;12.00;11.00;;;24.50;63.50;;;;;;5039732;28;20497;-47
2021/06/08 13:56:19;;;;;;;10.93;9.87;;;24.60;64.10;;;;;;5041832;28;20461;-47
2021/06/08 14:01:36;;;;;;;11.57;10.37;;;24.70;64.10;;;;;;5040188;28;20542;-45
2021/06/08 14:04:09;;;;;;;11.40;10.30;;;24.80;64.40;;;;;;5039135;28;20462;-45
2021/06/08 14:06:48;;;;;;;10.40;9.40;;;24.90;66.10;;;;;;5041544;28;20462;-46
2021/06/08 14:09:19;;;;;;;10.73;9.70;;;24.90;65.90;;;;;;5043361;28;21066;-46
2021/06/08 14:11:49;;;;;;;10.30;9.40;;;25.00;64.00;;;;;;5040876;28;20461;-46